Time;durP1;ratioP1;P1;durP2;ratioP2;P2;SDS_P1;SDS_P2;PMS_P1;PMS_P2;Temp;Humidity;BMP_temperature;BMP_pressure;BME280_temperature;BME280_humidity;BME280_pressure;Samples;Min_cycle;Max_cycle;Signal;HPM_P1;HPM_P2
2022/11/14 00:00:32;;;;;;;;;;;;;;;11.37;58.25;100716.91;4474948;32;32214;-64
2022/11/14 00:03:18;;;;;;;;;;;;;;;11.36;58.15;100709.81;4467057;32;33993;-64
2022/11/14 00:06:07;;;;;;;;;;;;;;;11.51;57.96;100710.66;4472109;32;34939;-65
2022/11/14 00:08:53;;;;;;;;;;;;;;;11.59;57.45;100694.09;4467678;32;35301;-64
2022/11/14 00:11:38;;;;;;;;;;;;;;;11.61;57.18;100697.53;4467938;32;33811;-65
2022/11/14 00:14:24;;;;;;;;;;;;;;;11.59;57.66;100694.97;4474247;32;32620;-63
2022/11/14 00:17:09;;;;;;;;;;;;;;;11.73;57.12;100699.44;4472575;32;34078;-65
2022/11/14 00:19:55;;;;;;;;;;;;;;;11.57;57.97;100696.88;4473667;32;33932;-64
2022/11/14 00:22:41;;;;;;;;;;;;;;;11.78;57.16;100697.31;4466427;32;34087;-64
2022/11/14 00:25:27;;;;;;;;;;;;;;;11.80;56.96;100699.88;4466362;32;34222;-65
2022/11/14 00:28:13;;;;;;;;;;;;;;;11.73;57.34;100696.75;4471674;32;34551;-68
2022/11/14 00:30:59;;;;;;;;;;;;;;;11.81;56.87;100694.44;4475169;32;32970;-65
2022/11/14 00:33:44;;;;;;;;;;;;;;;11.80;56.98;100698.06;4469734;32;34121;-65
2022/11/14 00:36:30;;;;;;;;;;;;;;;11.78;57.04;100700.00;4466648;32;35208;-65
2022/11/14 00:39:16;;;;;;;;;;;;;;;11.79;56.86;100699.03;4470252;32;34194;-65
2022/11/14 00:42:02;;;;;;;;;;;;;;;11.81;56.97;100690.87;4476007;32;35135;-64
2022/11/14 00:44:48;;;;;;;;;;;;;;;11.81;56.83;100698.91;4467567;32;33454;-64
2022/11/14 00:47:33;;;;;;;;;;;;;;;11.84;56.40;100704.09;4471812;32;34909;-64
2022/11/14 00:50:19;;;;;;;;;;;;;;;11.59;57.94;100697.63;4467319;32;34322;-64
2022/11/14 00:53:05;;;;;;;;;;;;;;;11.50;58.32;100692.88;4477783;32;34568;-64
2022/11/14 00:55:50;;;;;;;;;;;;;;;11.81;57.10;100699.81;4474429;32;33830;-65
2022/11/14 00:58:36;;;;;;;;;;;;;;;11.64;57.49;100695.50;4467585;32;34519;-64
2022/11/14 01:01:22;;;;;;;;;;;;;;;11.68;57.58;100684.59;4474481;32;34283;-64
2022/11/14 01:04:08;;;;;;;;;;;;;;;11.79;56.69;100685.63;4463119;32;33762;-64
2022/11/14 01:06:54;;;;;;;;;;;;;;;11.76;57.18;100691.19;4471951;32;34207;-69
2022/11/14 01:09:40;;;;;;;;;;;;;;;11.73;57.47;100687.84;4474060;32;34237;-67
2022/11/14 01:12:26;;;;;;;;;;;;;;;11.89;56.77;100686.78;4471591;32;33285;-68
2022/11/14 01:15:12;;;;;;;;;;;;;;;11.83;57.32;100678.25;4468981;32;35430;-67
2022/11/14 01:17:57;;;;;;;;;;;;;;;11.72;56.67;100678.94;4470842;32;34198;-68
2022/11/14 01:20:44;;;;;;;;;;;;;;;11.76;57.02;100674.25;4459368;32;33586;-69
2022/11/14 01:23:29;;;;;;;;;;;;;;;11.81;56.73;100670.31;4475635;32;34382;-68
2022/11/14 01:26:15;;;;;;;;;;;;;;;11.75;56.95;100676.06;4474468;32;33818;-70
2022/11/14 01:29:01;;;;;;;;;;;;;;;11.83;56.59;100670.19;4465185;32;34336;-70
2022/11/14 01:31:46;;;;;;;;;;;;;;;11.85;56.27;100671.00;4473076;32;33632;-67
2022/11/14 01:34:32;;;;;;;;;;;;;;;11.82;57.04;100668.47;4468928;32;33188;-68
2022/11/14 01:37:18;;;;;;;;;;;;;;;11.72;57.20;100673.59;4467839;32;33797;-67
2022/11/14 01:40:03;;;;;;;;;;;;;;;11.67;56.83;100662.28;4464667;32;34082;-68
2022/11/14 01:43:08;;;;;;;;;;;;;;;11.79;56.55;100657.94;4474403;32;33982;-68
2022/11/14 01:45:55;;;;;;;;;;;;;;;11.59;56.75;100661.94;4470145;32;35049;-68
2022/11/14 01:48:46;;;;;;;;;;;;;;;11.47;57.20;100657.34;4472467;32;34339;-69
2022/11/14 01:51:33;;;;;;;;;;;;;;;11.13;58.34;100662.16;4470148;32;32388;-67
2022/11/14 01:54:23;;;;;;;;;;;;;;;11.09;58.45;100663.31;4456350;32;35123;-69
2022/11/14 01:57:09;;;;;;;;;;;;;;;11.24;57.87;100642.72;4474079;32;34006;-70
2022/11/14 01:59:56;;;;;;;;;;;;;;;11.13;58.66;100654.09;4456627;32;34427;-67
2022/11/14 02:02:41;;;;;;;;;;;;;;;11.33;58.18;100656.41;4462482;32;33008;-68
2022/11/14 02:05:27;;;;;;;;;;;;;;;11.41;57.99;100655.91;4458669;32;34181;-68
2022/11/14 02:08:13;;;;;;;;;;;;;;;11.39;58.18;100650.63;4467899;32;33093;-67
2022/11/14 02:10:58;;;;;;;;;;;;;;;11.40;58.44;100648.84;4465734;32;32942;-68
2022/11/14 02:13:44;;;;;;;;;;;;;;;11.51;57.82;100649.00;4466985;32;33054;-69
2022/11/14 02:16:29;;;;;;;;;;;;;;;11.72;57.20;100651.25;4458444;32;35181;-68
2022/11/14 02:19:15;;;;;;;;;;;;;;;11.62;57.92;100650.97;4462051;32;32726;-68
2022/11/14 02:22:01;;;;;;;;;;;;;;;11.66;57.84;100653.38;4458351;32;35254;-68
2022/11/14 02:24:46;;;;;;;;;;;;;;;11.57;58.08;100650.44;4467427;32;33084;-68
2022/11/14 02:27:32;;;;;;;;;;;;;;;11.22;59.10;100650.84;4466644;32;34356;-67
2022/11/14 02:30:19;;;;;;;;;;;;;;;11.65;57.67;100645.41;4477725;32;33117;-67
2022/11/14 02:33:05;;;;;;;;;;;;;;;11.54;58.16;100650.63;4471893;32;33669;-70
2022/11/14 02:35:56;;;;;;;;;;;;;;;11.13;59.03;100646.94;4474284;32;34475;-67
2022/11/14 02:38:41;;;;;;;;;;;;;;;11.26;58.94;100640.81;4467803;32;33209;-68
2022/11/14 02:41:27;;;;;;;;;;;;;;;11.58;57.60;100646.78;4475897;32;33006;-68
2022/11/14 02:44:13;;;;;;;;;;;;;;;11.54;58.16;100651.47;4466183;32;34022;-68
2022/11/14 02:46:58;;;;;;;;;;;;;;;11.68;57.46;100650.59;4470960;32;34297;-67
2022/11/14 02:49:44;;;;;;;;;;;;;;;11.68;56.65;100655.09;4477499;32;34395;-66
2022/11/14 02:52:30;;;;;;;;;;;;;;;11.59;56.46;100645.84;4473107;32;35316;-67
2022/11/14 02:55:16;;;;;;;;;;;;;;;11.23;57.83;100646.34;4464456;32;34160;-67
2022/11/14 02:58:01;;;;;;;;;;;;;;;11.51;56.56;100642.78;4474785;32;31991;-66
2022/11/14 03:00:47;;;;;;;;;;;;;;;11.30;57.34;100645.00;4465946;32;33888;-67
2022/11/14 03:03:53;;;;;;;;;;;;;;;11.26;58.03;100641.66;4471314;32;34304;-66
2022/11/14 03:06:39;;;;;;;;;;;;;;;11.52;57.16;100648.03;4468308;32;34945;-65
2022/11/14 03:09:24;;;;;;;;;;;;;;;11.57;56.86;100637.88;4465841;32;33881;-65
2022/11/14 03:12:10;;;;;;;;;;;;;;;11.52;57.23;100642.66;4472193;32;34299;-66
2022/11/14 03:14:56;;;;;;;;;;;;;;;11.51;57.59;100640.09;4475495;32;34675;-68
2022/11/14 03:17:42;;;;;;;;;;;;;;;11.41;57.81;100638.00;4469333;32;34366;-66
2022/11/14 03:20:28;;;;;;;;;;;;;;;11.60;57.01;100631.47;4471883;32;32772;-68
2022/11/14 03:23:13;;;;;;;;;;;;;;;11.67;56.74;100632.78;4471106;32;34553;-66
2022/11/14 03:26:00;;;;;;;;;;;;;;;11.67;56.67;100635.47;4468173;32;34462;-66
2022/11/14 03:28:46;;;;;;;;;;;;;;;11.69;56.39;100625.50;4467029;32;32851;-68
2022/11/14 03:31:32;;;;;;;;;;;;;;;11.53;57.38;100630.16;4475751;32;32682;-67
2022/11/14 03:34:18;;;;;;;;;;;;;;;11.27;58.82;100631.78;4473190;32;34075;-67
2022/11/14 03:37:04;;;;;;;;;;;;;;;11.38;58.20;100626.63;4466826;32;33097;-66
2022/11/14 03:39:50;;;;;;;;;;;;;;;11.51;57.46;100629.38;4469418;32;34621;-66
2022/11/14 03:42:35;;;;;;;;;;;;;;;11.65;56.74;100629.31;4465746;32;33653;-67
2022/11/14 03:45:21;;;;;;;;;;;;;;;11.62;57.00;100632.22;4476490;32;33702;-67
2022/11/14 03:48:07;;;;;;;;;;;;;;;11.43;57.52;100620.00;4469050;32;35520;-66
2022/11/14 03:50:53;;;;;;;;;;;;;;;11.41;57.22;100626.44;4466535;32;33692;-67
2022/11/14 03:53:38;;;;;;;;;;;;;;;11.47;56.88;100620.69;4470884;32;33529;-67
2022/11/14 03:56:24;;;;;;;;;;;;;;;11.55;56.79;100620.16;4470151;32;34244;-67
2022/11/14 03:59:10;;;;;;;;;;;;;;;11.47;56.80;100623.34;4468635;32;34287;-66
2022/11/14 04:01:55;;;;;;;;;;;;;;;11.23;57.85;100619.56;4475094;32;33706;-67
2022/11/14 04:04:41;;;;;;;;;;;;;;;11.40;56.92;100622.91;4468032;32;32842;-67
2022/11/14 04:07:26;;;;;;;;;;;;;;;11.26;57.18;100622.91;4473788;32;34195;-66
2022/11/14 04:10:12;;;;;;;;;;;;;;;11.19;57.41;100610.84;4475324;32;33850;-67
2022/11/14 04:12:58;;;;;;;;;;;;;;;11.54;55.93;100619.31;4468457;32;34608;-68
2022/11/14 04:15:45;;;;;;;;;;;;;;;11.41;56.56;100613.03;4470777;32;32070;-67
2022/11/14 04:18:30;;;;;;;;;;;;;;;11.48;56.48;100616.16;4472954;32;34193;-67
2022/11/14 04:21:16;;;;;;;;;;;;;;;11.35;56.04;100616.09;4472472;32;33854;-69
2022/11/14 04:24:02;;;;;;;;;;;;;;;11.39;56.34;100617.63;4473303;32;34482;-69
2022/11/14 04:26:55;;;;;;;;;;;;;;;11.44;55.49;100610.16;4472988;32;33121;-67
2022/11/14 04:29:41;;;;;;;;;;;;;;;11.41;55.67;100604.97;4473883;32;34248;-69
2022/11/14 04:32:26;;;;;;;;;;;;;;;11.25;56.40;100605.09;4475836;32;32807;-67
2022/11/14 04:35:12;;;;;;;;;;;;;;;11.42;55.94;100602.19;4466276;32;35041;-66
2022/11/14 04:37:58;;;;;;;;;;;;;;;11.34;56.40;100604.53;4464761;32;32202;-66
2022/11/14 04:40:52;;;;;;;;;;;;;;;11.28;56.52;100598.69;4475087;32;35238;-66
2022/11/14 04:43:38;;;;;;;;;;;;;;;11.37;56.39;100587.38;4462826;32;33030;-67
2022/11/14 04:46:23;;;;;;;;;;;;;;;11.14;56.62;100592.41;4468826;32;34227;-67
2022/11/14 04:49:09;;;;;;;;;;;;;;;11.28;55.94;100587.97;4471623;32;34046;-68
2022/11/14 04:51:55;;;;;;;;;;;;;;;11.24;55.67;100590.00;4471699;32;33862;-67
2022/11/14 04:54:41;;;;;;;;;;;;;;;10.98;56.18;100578.25;4473783;32;35002;-67
2022/11/14 04:57:26;;;;;;;;;;;;;;;10.94;56.14;100584.75;4467824;32;35120;-69
2022/11/14 05:00:12;;;;;;;;;;;;;;;11.10;55.02;100569.41;4465040;32;33312;-72
2022/11/14 05:02:58;;;;;;;;;;;;;;;11.13;54.10;100571.91;4468820;32;34989;-65
2022/11/14 05:05:44;;;;;;;;;;;;;;;10.65;56.02;100566.00;4466516;32;35395;-66
2022/11/14 05:08:29;;;;;;;;;;;;;;;10.83;56.36;100571.19;4469866;32;34045;-67
2022/11/14 05:11:16;;;;;;;;;;;;;;;10.46;57.53;100566.31;4466147;32;33208;-69
2022/11/14 05:14:02;;;;;;;;;;;;;;;10.77;56.53;100563.53;4473232;32;34069;-70
2022/11/14 05:16:48;;;;;;;;;;;;;;;10.89;56.40;100560.94;4463841;32;35116;-70
2022/11/14 05:19:33;;;;;;;;;;;;;;;11.06;56.31;100564.38;4475591;32;34362;-69
2022/11/14 05:22:19;;;;;;;;;;;;;;;11.10;56.20;100566.75;4471235;32;33524;-67
2022/11/14 05:25:05;;;;;;;;;;;;;;;11.10;56.50;100576.59;4471445;32;34415;-66
2022/11/14 05:27:51;;;;;;;;;;;;;;;11.17;55.81;100575.25;4466262;32;34386;-68
2022/11/14 05:30:36;;;;;;;;;;;;;;;11.22;55.46;100569.59;4476315;32;33267;-67
2022/11/14 05:33:22;;;;;;;;;;;;;;;10.91;56.67;100571.53;4475942;32;33234;-65
2022/11/14 05:36:09;;;;;;;;;;;;;;;10.94;56.43;100568.69;4468271;32;33884;-67
2022/11/14 05:38:55;;;;;;;;;;;;;;;11.08;56.62;100573.19;4466888;32;35019;-66
2022/11/14 05:41:40;;;;;;;;;;;;;;;11.01;56.72;100572.72;4467913;32;33572;-66
2022/11/14 05:44:26;;;;;;;;;;;;;;;11.12;56.25;100572.03;4472732;32;32998;-67
2022/11/14 05:47:12;;;;;;;;;;;;;;;11.10;56.54;100566.75;4472562;32;34651;-66
2022/11/14 05:49:58;;;;;;;;;;;;;;;11.22;56.14;100573.16;4467838;32;34696;-66
2022/11/14 05:52:43;;;;;;;;;;;;;;;11.21;55.85;100570.56;4466327;32;34352;-69
2022/11/14 05:55:29;;;;;;;;;;;;;;;11.22;55.43;100566.94;4467714;32;33671;-65
2022/11/14 05:58:15;;;;;;;;;;;;;;;11.19;55.82;100576.03;4468219;32;34213;-67
2022/11/14 06:01:10;;;;;;;;;;;;;;;11.07;56.37;100574.97;4470679;32;34230;-66
2022/11/14 06:03:56;;;;;;;;;;;;;;;11.01;57.10;100574.50;4473813;32;34189;-67
2022/11/14 06:06:42;;;;;;;;;;;;;;;11.15;55.95;100571.81;4472044;32;33223;-66
2022/11/14 06:09:27;;;;;;;;;;;;;;;11.13;55.32;100581.75;4467022;32;34286;-66
2022/11/14 06:12:13;;;;;;;;;;;;;;;11.04;55.79;100582.34;4465669;32;33931;-66
2022/11/14 06:14:59;;;;;;;;;;;;;;;11.06;55.88;100583.97;4466758;32;34254;-65
2022/11/14 06:17:45;;;;;;;;;;;;;;;11.18;55.41;100587.72;4469760;32;34306;-66
2022/11/14 06:20:31;;;;;;;;;;;;;;;11.10;56.00;100590.84;4467192;32;32763;-66
2022/11/14 06:23:16;;;;;;;;;;;;;;;11.18;56.26;100598.44;4471104;32;32919;-66
2022/11/14 06:26:20;;;;;;;;;;;;;;;10.79;57.60;100605.34;4468484;32;34154;-66
2022/11/14 06:29:06;;;;;;;;;;;;;;;11.08;56.83;100597.28;4467186;32;33273;-66
2022/11/14 06:31:52;;;;;;;;;;;;;;;10.98;57.28;100594.34;4471538;32;35324;-68
2022/11/14 06:34:37;;;;;;;;;;;;;;;11.22;56.78;100589.22;4465808;32;32851;-66
2022/11/14 06:37:23;;;;;;;;;;;;;;;11.40;56.39;100601.44;4469895;32;34121;-65
2022/11/14 06:40:09;;;;;;;;;;;;;;;11.26;57.27;100596.09;4465162;32;32674;-66
2022/11/14 06:42:55;;;;;;;;;;;;;;;11.39;57.26;100597.03;4462711;32;33524;-66
2022/11/14 06:45:41;;;;;;;;;;;;;;;11.31;57.32;100603.84;4467944;32;33040;-65
2022/11/14 06:48:27;;;;;;;;;;;;;;;11.11;57.72;100605.12;4464807;32;32835;-65
2022/11/14 06:51:13;;;;;;;;;;;;;;;11.54;56.75;100602.38;4475571;32;33824;-67
2022/11/14 06:53:59;;;;;;;;;;;;;;;11.53;57.01;100600.66;4476288;32;34180;-67
2022/11/14 06:56:45;;;;;;;;;;;;;;;11.68;56.28;100604.13;4471520;32;34133;-66
2022/11/14 06:59:31;;;;;;;;;;;;;;;11.53;56.04;100603.34;4470388;32;33853;-68
2022/11/14 07:02:16;;;;;;;;;;;;;;;11.51;56.39;100607.94;4477835;32;33029;-67
2022/11/14 07:05:06;;;;;;;;;;;;;;;11.61;56.04;100609.03;4470946;32;34478;-67
2022/11/14 07:07:52;;;;;;;;;;;;;;;11.66;55.82;100604.25;4472985;32;34103;-68
2022/11/14 07:10:38;;;;;;;;;;;;;;;11.73;56.32;100612.75;4467636;32;34240;-66
2022/11/14 07:13:23;;;;;;;;;;;;;;;11.78;56.86;100607.94;4477944;32;32085;-66
2022/11/14 07:16:09;;;;;;;;;;;;;;;11.83;56.85;100605.81;4470139;32;34135;-65
2022/11/14 07:18:55;;;;;;;;;;;;;;;11.71;57.32;100609.31;4472491;32;34235;-66
2022/11/14 07:21:41;;;;;;;;;;;;;;;11.49;57.81;100604.47;4474266;32;35077;-65
2022/11/14 07:24:27;;;;;;;;;;;;;;;11.50;58.05;100600.84;4467996;32;33703;-66
2022/11/14 07:27:13;;;;;;;;;;;;;;;11.72;57.70;100601.16;4469606;32;34033;-67
2022/11/14 07:29:59;;;;;;;;;;;;;;;11.77;57.09;100596.34;4470059;32;34111;-67
2022/11/14 07:32:45;;;;;;;;;;;;;;;11.97;56.52;100591.50;4469238;32;32762;-67
2022/11/14 07:35:31;;;;;;;;;;;;;;;11.98;57.00;100603.97;4468312;32;34452;-64
2022/11/14 07:38:16;;;;;;;;;;;;;;;12.22;56.80;100596.94;4470823;32;33042;-64
2022/11/14 07:41:02;;;;;;;;;;;;;;;12.43;56.65;100602.69;4475255;32;33941;-66
2022/11/14 07:43:48;;;;;;;;;;;;;;;12.46;56.46;100594.41;4474623;32;35016;-65
2022/11/14 07:46:34;;;;;;;;;;;;;;;12.65;56.05;100594.00;4475689;32;32349;-66
2022/11/14 07:49:20;;;;;;;;;;;;;;;13.00;55.76;100594.19;4470246;32;34435;-64
2022/11/14 07:52:06;;;;;;;;;;;;;;;13.13;56.20;100596.84;4469199;32;34105;-65
2022/11/14 07:54:51;;;;;;;;;;;;;;;13.77;54.47;100598.50;4460611;32;34044;-65
2022/11/14 07:57:37;;;;;;;;;;;;;;;13.93;54.13;100594.56;4480490;32;32606;-64
2022/11/14 08:00:28;;;;;;;;;;;;;;;14.48;52.20;100596.69;4478855;32;34124;-65
2022/11/14 08:03:14;;;;;;;;;;;;;;;14.32;52.60;100589.81;4474577;32;33782;-65
2022/11/14 08:06:00;;;;;;;;;;;;;;;14.41;52.26;100594.50;4471119;32;34260;-65
2022/11/14 08:08:46;;;;;;;;;;;;;;;14.10;52.45;100595.12;4479576;32;33447;-64
2022/11/14 08:11:47;;;;;;;;;;;;;;;14.30;52.08;100589.06;4484971;32;34022;-66
2022/11/14 08:14:33;;;;;;;;;;;;;;;14.16;53.22;100590.13;4469508;32;33882;-66
2022/11/14 08:17:19;;;;;;;;;;;;;;;14.20;53.18;100593.44;4468942;32;34001;-66
2022/11/14 08:20:05;;;;;;;;;;;;;;;14.25;54.36;100593.06;4474488;32;33518;-64
2022/11/14 08:22:54;;;;;;;;;;;;;;;14.27;54.31;100586.59;4468403;32;34025;-64
2022/11/14 08:25:40;;;;;;;;;;;;;;;14.68;53.54;100582.56;4466290;32;35592;-64
2022/11/14 08:28:26;;;;;;;;;;;;;;;14.34;53.89;100587.84;4473220;32;33945;-65
2022/11/14 08:31:12;;;;;;;;;;;;;;;14.85;53.19;100578.53;4483577;32;32684;-64
2022/11/14 08:33:58;;;;;;;;;;;;;;;14.85;53.38;100573.13;4469087;32;34218;-64
2022/11/14 08:36:43;;;;;;;;;;;;;;;15.61;51.14;100569.63;4469747;32;33160;-65
2022/11/14 08:39:29;;;;;;;;;;;;;;;15.90;50.14;100569.06;4471026;32;33815;-63
2022/11/14 08:42:15;;;;;;;;;;;;;;;15.78;51.03;100564.69;4472309;32;33314;-64
2022/11/14 08:45:01;;;;;;;;;;;;;;;16.24;49.96;100569.78;4478874;32;33932;-64
2022/11/14 08:47:51;;;;;;;;;;;;;;;16.10;49.89;100561.12;4456741;32;34790;-64
2022/11/14 08:50:36;;;;;;;;;;;;;;;16.45;49.45;100558.94;4473682;32;35021;-64
2022/11/14 08:53:22;;;;;;;;;;;;;;;17.38;46.60;100557.97;4479044;32;31970;-64
2022/11/14 08:56:09;;;;;;;;;;;;;;;18.89;43.44;100549.37;4470287;32;34038;-64
2022/11/14 08:58:55;;;;;;;;;;;;;;;18.47;43.03;100555.16;4469115;32;34574;-66
2022/11/14 09:01:41;;;;;;;;;;;;;;;18.93;42.43;100553.47;4458134;32;33801;-64
2022/11/14 09:04:27;;;;;;;;;;;;;;;18.73;42.14;100550.84;4476239;32;32022;-65
2022/11/14 09:07:13;;;;;;;;;;;;;;;19.50;40.80;100548.75;4473246;32;34109;-64
2022/11/14 09:09:59;;;;;;;;;;;;;;;19.57;39.74;100554.44;4480168;32;33782;-63
2022/11/14 09:12:45;;;;;;;;;;;;;;;18.12;42.69;100556.63;4439460;32;957867;-64
2022/11/14 09:15:32;;;;;;;;;;;;;;;18.23;43.02;100570.00;4467393;32;33239;-65
2022/11/14 09:18:19;;;;;;;;;;;;;;;17.50;43.37;100556.00;4475546;32;35245;-64
2022/11/14 09:21:06;;;;;;;;;;;;;;;17.10;44.73;100556.03;4482608;32;34244;-65
2022/11/14 09:23:52;;;;;;;;;;;;;;;17.89;43.86;100550.66;4480327;32;34475;-65
2022/11/14 09:26:45;;;;;;;;;;;;;;;17.63;44.01;100562.00;4469234;32;34477;-66
2022/11/14 09:29:31;;;;;;;;;;;;;;;17.58;44.49;100555.28;4469059;32;33685;-64
2022/11/14 09:32:16;;;;;;;;;;;;;;;16.71;46.44;100553.13;4476989;32;35243;-64
2022/11/14 09:35:02;;;;;;;;;;;;;;;17.11;45.87;100550.50;4471353;32;33933;-66
2022/11/14 09:37:48;;;;;;;;;;;;;;;18.87;42.48;100541.34;4475717;32;32045;-65
2022/11/14 09:40:45;;;;;;;;;;;;;;;17.96;43.24;100545.53;4474938;32;34731;-68
2022/11/14 09:43:39;;;;;;;;;;;;;;;19.15;41.21;100536.81;4481119;32;34245;-66
2022/11/14 09:46:25;;;;;;;;;;;;;;;19.63;40.10;100530.22;4465935;32;35164;-67
2022/11/14 09:49:30;;;;;;;;;;;;;;;19.51;39.90;100531.44;4470551;32;34414;-67
2022/11/14 09:52:33;;;;;;;;;;;;;;;19.17;40.84;100526.66;4467247;32;33925;-66
2022/11/14 09:55:23;;;;;;;;;;;;;;;18.35;41.64;100527.38;4476194;32;33082;-70
2022/11/14 09:58:11;;;;;;;;;;;;;;;17.99;42.40;100527.12;4474662;32;34048;-66
2022/11/14 10:01:01;;;;;;;;;;;;;;;17.44;44.26;100524.09;4457979;32;33248;-66
2022/11/14 10:03:58;;;;;;;;;;;;;;;19.24;40.80;100511.47;4467905;32;34895;-68
2022/11/14 10:06:55;;;;;;;;;;;;;;;19.60;39.76;100514.25;4468623;32;35569;-66
2022/11/14 10:09:53;;;;;;;;;;;;;;;19.19;40.40;100518.37;4469499;32;35321;-67
2022/11/14 10:12:42;;;;;;;;;;;;;;;18.75;41.15;100505.47;4466065;32;33722;-69
2022/11/14 10:15:43;;;;;;;;;;;;;;;19.46;40.18;100506.66;4472932;32;35400;-66
2022/11/14 10:18:32;;;;;;;;;;;;;;;19.12;40.34;100499.13;4475355;32;34475;-68
2022/11/14 10:21:38;;;;;;;;;;;;;;;18.79;41.13;100492.44;4479087;32;34317;-69
2022/11/14 10:24:27;;;;;;;;;;;;;;;18.81;40.93;100491.31;4464734;32;33346;-66
2022/11/14 10:27:16;;;;;;;;;;;;;;;17.31;44.09;100489.16;4464230;32;32565;-68
2022/11/14 10:30:11;;;;;;;;;;;;;;;17.34;44.51;100491.59;4444610;32;32915;-67
2022/11/14 10:33:00;;;;;;;;;;;;;;;17.62;44.61;100483.63;4461882;32;35260;-65
2022/11/14 10:35:54;;;;;;;;;;;;;;;17.16;45.77;100486.00;4474082;32;32966;-66
2022/11/14 10:38:39;;;;;;;;;;;;;;;17.17;44.93;100482.31;4475166;32;34077;-65
2022/11/14 10:41:25;;;;;;;;;;;;;;;17.36;45.92;100476.06;4471833;32;34317;-66
2022/11/14 10:44:35;;;;;;;;;;;;;;;17.37;45.93;100475.09;4463924;32;34117;-63
2022/11/14 10:47:22;;;;;;;;;;;;;;;17.18;44.97;100484.03;4468994;32;34233;-67
2022/11/14 10:50:18;;;;;;;;;;;;;;;17.12;45.45;100475.62;4454570;32;33863;-66
2022/11/14 10:53:06;;;;;;;;;;;;;;;16.51;46.37;100468.41;4479705;32;34543;-65
2022/11/14 10:55:51;;;;;;;;;;;;;;;16.76;45.59;100465.25;4467270;32;33898;-66
2022/11/14 10:58:52;;;;;;;;;;;;;;;16.39;45.98;100464.06;4467517;32;33484;-66
2022/11/14 11:01:38;;;;;;;;;;;;;;;16.39;47.18;100458.66;4474909;32;34044;-65
2022/11/14 11:04:25;;;;;;;;;;;;;;;16.36;47.05;100454.37;4476668;32;35789;-65
2022/11/14 11:11:28;;;;;;;;;;;;;;;16.41;47.23;100451.28;4483200;32;34369;-65
2022/11/14 11:13:30;;;;;;;;;;;;;;;15.37;49.58;100445.69;4469329;32;34213;-64
2022/11/14 11:16:15;;;;;;;;;;;;;;;15.13;50.06;100445.06;4469862;32;35694;-64
2022/11/14 11:19:14;;;;;;;;;;;;;;;15.10;49.96;100453.41;4468875;32;33976;-65
2022/11/14 11:22:00;;;;;;;;;;;;;;;15.16;49.62;100433.19;4470023;32;33408;-65
2022/11/14 11:24:46;;;;;;;;;;;;;;;15.53;49.18;100429.09;4475405;31;34401;-65
2022/11/14 11:27:32;;;;;;;;;;;;;;;15.70;49.34;100427.72;4473143;32;34232;-66
2022/11/14 11:30:19;;;;;;;;;;;;;;;15.84;49.66;100426.50;4468332;32;34090;-66
2022/11/14 11:33:33;;;;;;;;;;;;;;;14.28;52.30;100429.44;4471823;32;33459;-66
2022/11/14 11:36:20;;;;;;;;;;;;;;;15.06;51.44;100423.16;4460171;32;33290;-65
2022/11/14 11:39:07;;;;;;;;;;;;;;;15.52;50.00;100421.97;4469218;32;34148;-65
2022/11/14 11:41:53;;;;;;;;;;;;;;;14.60;51.96;100418.81;4464422;32;34345;-65
2022/11/14 11:44:57;;;;;;;;;;;;;;;13.66;54.63;100416.37;4469568;31;33347;-66
2022/11/14 11:47:52;;;;;;;;;;;;;;;13.84;54.12;100412.28;4464435;32;34402;-66
2022/11/14 11:50:37;;;;;;;;;;;;;;;14.61;51.89;100417.00;4470381;32;34163;-67
2022/11/14 11:53:26;;;;;;;;;;;;;;;15.24;50.50;100414.50;4468975;32;34815;-67
2022/11/14 11:56:24;;;;;;;;;;;;;;;14.07;54.11;100404.25;4479000;32;33665;-66
2022/11/14 11:59:15;;;;;;;;;;;;;;;14.66;52.25;100409.38;4456906;32;33189;-66
2022/11/14 12:02:02;;;;;;;;;;;;;;;15.17;51.41;100397.13;4474394;32;34823;-65
2022/11/14 12:04:48;;;;;;;;;;;;;;;14.45;53.30;100396.66;4483648;32;34521;-66
2022/11/14 12:07:37;;;;;;;;;;;;;;;14.73;52.53;100394.41;4473370;32;33859;-66
2022/11/14 12:10:24;;;;;;;;;;;;;;;14.50;53.26;100382.78;4469229;32;35228;-65
2022/11/14 12:13:29;;;;;;;;;;;;;;;15.11;52.03;100372.37;4468820;32;34912;-67
2022/11/14 12:16:18;;;;;;;;;;;;;;;14.48;53.96;100375.81;4481581;32;35498;-68
2022/11/14 12:19:07;;;;;;;;;;;;;;;13.95;54.92;100371.06;4475241;32;33352;-68
2022/11/14 12:21:53;;;;;;;;;;;;;;;13.75;56.33;100367.25;4475329;32;33040;-66
2022/11/14 12:24:58;;;;;;;;;;;;;;;15.05;53.28;100361.25;4468593;32;35509;-68
2022/11/14 12:27:58;;;;;;;;;;;;;;;15.16;52.57;100363.06;4467988;32;34095;-67
2022/11/14 12:30:49;;;;;;;;;;;;;;;14.79;53.61;100350.81;4459811;32;34211;-68
2022/11/14 12:33:36;;;;;;;;;;;;;;;14.48;54.21;100351.56;4472521;32;34360;-68
2022/11/14 12:36:25;;;;;;;;;;;;;;;15.08;52.68;100348.38;4456694;32;34195;-66
2022/11/14 12:39:21;;;;;;;;;;;;;;;14.60;53.92;100339.84;4469967;32;35067;-66
2022/11/14 12:42:08;;;;;;;;;;;;;;;14.94;53.45;100339.75;4466201;31;34437;-67
2022/11/14 12:44:54;;;;;;;;;;;;;;;14.87;53.32;100342.09;4473425;32;35281;-67
2022/11/14 12:47:46;;;;;;;;;;;;;;;14.81;53.36;100332.69;4462757;32;35308;-66
2022/11/14 12:50:40;;;;;;;;;;;;;;;14.71;53.53;100336.28;4458130;32;34029;-66
2022/11/14 12:53:34;;;;;;;;;;;;;;;15.13;52.37;100329.97;4472680;32;33291;-66
2022/11/14 12:56:29;;;;;;;;;;;;;;;15.45;51.95;100325.53;4477332;32;34139;-66
2022/11/14 12:59:18;;;;;;;;;;;;;;;14.91;53.19;100328.22;4471639;32;34336;-65
2022/11/14 13:02:22;;;;;;;;;;;;;;;15.68;50.63;100316.31;4474849;32;34242;-67
2022/11/14 13:05:26;;;;;;;;;;;;;;;15.48;51.41;100323.44;4485200;32;33481;-66
2022/11/14 13:08:26;;;;;;;;;;;;;;;15.67;50.83;100319.19;4458474;32;32503;-63
2022/11/14 13:24:19;;;;;;;;;;;;;;;15.57;49.60;100309.16;4471428;32;34095;-64
2022/11/14 13:27:22;;;;;;;;;;;;;;;15.65;49.29;100304.91;4466261;32;35285;-64
2022/11/14 13:30:47;;;;;;;;;;;;;;;15.18;49.13;100301.75;4469941;31;33515;-63
2022/11/14 13:33:41;;;;;;;;;;;;;;;15.44;49.71;100307.63;4472501;32;34158;-63
2022/11/14 13:36:41;;;;;;;;;;;;;;;15.93;47.42;100298.84;4470815;32;35617;-63
2022/11/14 13:39:32;;;;;;;;;;;;;;;15.70;47.77;100294.63;4456910;32;34139;-64
2022/11/14 13:42:18;;;;;;;;;;;;;;;15.57;48.07;100292.09;4473333;32;33124;-63
2022/11/14 13:45:16;;;;;;;;;;;;;;;15.70;48.52;100289.22;4477221;32;34279;-63
2022/11/14 13:48:11;;;;;;;;;;;;;;;15.69;49.10;100285.66;4459470;32;32859;-65
2022/11/14 13:51:00;;;;;;;;;;;;;;;15.54;49.23;100281.56;4476964;32;33530;-65
2022/11/14 13:54:13;;;;;;;;;;;;;;;15.45;50.03;100282.38;4448727;32;31872;-65
2022/11/14 13:57:05;;;;;;;;;;;;;;;15.78;48.89;100282.16;4465164;32;34699;-68
2022/11/14 13:59:52;;;;;;;;;;;;;;;15.56;49.44;100280.44;4464693;32;34474;-65
2022/11/14 14:02:44;;;;;;;;;;;;;;;14.77;51.85;100284.56;4477339;32;35155;-64
2022/11/14 14:05:39;;;;;;;;;;;;;;;16.18;48.53;100285.84;4469718;32;33088;-64
2022/11/14 14:08:31;;;;;;;;;;;;;;;15.76;49.31;100283.25;4467211;32;33918;-65
2022/11/14 14:11:22;;;;;;;;;;;;;;;15.88;49.83;100274.09;4477394;32;35296;-66
2022/11/14 14:14:20;;;;;;;;;;;;;;;15.92;49.88;100280.94;4482484;32;33993;-66
2022/11/14 14:17:17;;;;;;;;;;;;;;;16.02;49.04;100281.84;4468632;32;31836;-66
2022/11/14 14:20:09;;;;;;;;;;;;;;;14.79;51.39;100280.75;4462884;32;34621;-65
2022/11/14 14:23:14;;;;;;;;;;;;;;;14.91;51.23;100286.94;4461456;32;32915;-65
2022/11/14 14:26:00;;;;;;;;;;;;;;;15.68;49.48;100283.09;4473281;32;34094;-64
2022/11/14 14:29:00;;;;;;;;;;;;;;;16.18;48.27;100278.63;4477085;32;33779;-64
2022/11/14 14:31:50;;;;;;;;;;;;;;;16.10;48.18;100274.87;4476712;32;34326;-65
2022/11/14 14:34:36;;;;;;;;;;;;;;;15.33;49.05;100274.34;4473398;32;34533;-65
2022/11/14 14:37:23;;;;;;;;;;;;;;;15.70;48.57;100275.72;4474386;32;34040;-66
2022/11/14 14:40:20;;;;;;;;;;;;;;;15.27;48.69;100272.16;4473888;32;33149;-66